Time;durP1;ratioP1;P1;durP2;ratioP2;P2;SDS_P1;SDS_P2;PMS_P1;PMS_P2;Temp;Humidity;BMP_temperature;BMP_pressure;BME280_temperature;BME280_humidity;BME280_pressure;Samples;Min_cycle;Max_cycle;Signal;HPM_P1;HPM_P2
2023/08/28 00:02:12;;;;;;;13.23;9.52;;;;;;;;;;5045554;28;20108;-59
2023/08/28 00:04:38;;;;;;;13.98;9.48;;;;;;;;;;5049051;28;20171;-59
2023/08/28 00:07:03;;;;;;;13.85;9.65;;;;;;;;;;5049014;28;20029;-59
2023/08/28 00:09:28;;;;;;;14.32;9.82;;;;;;;;;;5049275;28;20032;-59
2023/08/28 00:11:57;;;;;;;16.73;10.15;;;;;;;;;;5047957;28;20102;-59
2023/08/28 00:14:24;;;;;;;14.68;10.18;;;;;;;;;;5050115;28;20052;-59
2023/08/28 00:16:49;;;;;;;14.80;9.60;;;;;;;;;;5050466;28;20041;-60
2023/08/28 00:19:15;;;;;;;16.30;9.88;;;;;;;;;;5044204;28;20091;-60
2023/08/28 00:21:40;;;;;;;16.15;11.45;;;;;;;;;;5029804;28;20095;-59
2023/08/28 00:24:06;;;;;;;15.93;10.95;;;;;;;;;;5043606;28;20457;-60
2023/08/28 00:26:32;;;;;;;18.02;11.18;;;;;;;;;;5047188;28;20040;-60
2023/08/28 00:28:57;;;;;;;14.85;10.30;;;;;;;;;;5049539;28;20040;-60
2023/08/28 00:31:23;;;;;;;13.10;9.57;;;;;;;;;;5051069;28;20028;-60
2023/08/28 00:33:48;;;;;;;14.07;10.18;;;;;;;;;;5047383;28;20100;-60
2023/08/28 00:36:17;;;;;;;14.93;9.75;;;;;;;;;;5051342;28;20030;-60
2023/08/28 00:38:43;;;;;;;15.30;10.30;;;;;;;;;;5052472;28;20029;-60
2023/08/28 00:41:08;;;;;;;17.17;11.20;;;;;;;;;;5053001;28;20047;-60
2023/08/28 00:43:34;;;;;;;18.55;11.00;;;;;;;;;;5053873;28;20025;-60
2023/08/28 00:46:00;;;;;;;13.75;10.88;;;;;;;;;;5038648;28;20048;-60
2023/08/28 00:48:27;;;;;;;15.80;11.35;;;;;;;;;;5038517;28;20044;-60
2023/08/28 00:50:53;;;;;;;16.50;11.68;;;;;;;;;;5052899;28;20037;-60
2023/08/28 00:53:19;;;;;;;16.17;11.52;;;;;;;;;;5038517;28;20381;-59
2023/08/28 00:55:45;;;;;;;15.20;11.52;;;;;;;;;;5034457;28;20045;-60
2023/08/28 00:58:11;;;;;;;18.92;11.85;;;;;;;;;;5051539;28;20025;-60
2023/08/28 01:00:36;;;;;;;17.42;11.18;;;;;;;;;;5047412;28;20041;-60
2023/08/28 01:03:03;;;;;;;16.95;11.02;;;;;;;;;;5042194;28;20108;-60
2023/08/28 01:05:59;;;;;;;14.63;10.40;;;;;;;;;;5045313;28;21699;-60
2023/08/28 01:09:08;;;;;;;14.77;10.10;;;;;;;;;;5052323;28;20048;-59
2023/08/28 01:12:02;;;;;;;17.70;10.60;;;;;;;;;;5035536;28;20060;-61
2023/08/28 01:14:33;;;;;;;17.10;10.65;;;;;;;;;;5031485;28;20043;-61
2023/08/28 01:17:03;;;;;;;14.38;10.98;;;;;;;;;;5048359;28;20044;-59
2023/08/28 01:19:36;;;;;;;15.77;12.65;;;;;;;;;;5034771;28;20112;-62
2023/08/28 01:22:54;;;;;;;16.58;11.70;;;;;;;;;;5042091;28;20473;-60
2023/08/28 01:25:20;;;;;;;17.77;11.65;;;;;;;;;;5032202;28;20068;-61
2023/08/28 01:27:46;;;;;;;14.43;11.18;;;;;;;;;;5051624;28;20035;-61
2023/08/28 01:30:13;;;;;;;16.10;11.40;;;;;;;;;;5038776;28;20084;-61
2023/08/28 01:32:41;;;;;;;15.40;10.70;;;;;;;;;;5046840;28;20037;-61
2023/08/28 01:35:10;;;;;;;15.73;11.35;;;;;;;;;;5041226;28;20036;-61
2023/08/28 01:38:02;;;;;;;16.08;11.02;;;;;;;;;;5042498;28;20493;-61
2023/08/28 01:40:39;;;;;;;15.95;10.18;;;;;;;;;;5041561;28;20059;-61
2023/08/28 01:43:08;;;;;;;16.52;10.90;;;;;;;;;;5051903;28;20043;-61
2023/08/28 01:45:36;;;;;;;17.20;10.65;;;;;;;;;;5041594;28;20033;-61
2023/08/28 01:48:02;;;;;;;18.58;11.30;;;;;;;;;;5047259;28;20073;-61
2023/08/28 01:50:27;;;;;;;17.15;11.10;;;;;;;;;;5050294;28;20430;-61
2023/08/28 01:52:53;;;;;;;15.93;11.40;;;;;;;;;;5040452;28;20033;-61
2023/08/28 01:55:31;;;;;;;16.95;11.30;;;;;;;;;;5040202;28;20064;-61
2023/08/28 01:57:57;;;;;;;18.00;10.88;;;;;;;;;;5051257;28;20045;-61
2023/08/28 02:00:22;;;;;;;14.60;11.23;;;;;;;;;;5045940;28;20421;-61
2023/08/28 02:02:48;;;;;;;15.25;11.07;;;;;;;;;;5041754;28;20033;-61
2023/08/28 02:05:13;;;;;;;20.33;12.60;;;;;;;;;;5035765;28;20091;-62
2023/08/28 02:07:38;;;;;;;18.27;11.68;;;;;;;;;;5047976;28;20025;-61
2023/08/28 02:10:05;;;;;;;16.08;11.18;;;;;;;;;;5051654;28;20063;-61
2023/08/28 02:12:30;;;;;;;15.27;10.48;;;;;;;;;;5053103;28;20029;-61
2023/08/28 02:14:56;;;;;;;15.68;9.98;;;;;;;;;;5049724;28;20037;-61
2023/08/28 02:17:21;;;;;;;13.85;10.10;;;;;;;;;;5050264;28;20061;-61
2023/08/28 02:19:46;;;;;;;13.75;9.73;;;;;;;;;;5051192;28;20095;-61
2023/08/28 02:22:12;;;;;;;14.27;10.30;;;;;;;;;;5046306;28;20025;-61
2023/08/28 02:24:37;;;;;;;19.30;10.57;;;;;;;;;;5046140;28;20095;-61
2023/08/28 02:27:03;;;;;;;18.15;10.93;;;;;;;;;;5037339;28;20044;-61
2023/08/28 02:29:28;;;;;;;14.82;10.85;;;;;;;;;;5051166;28;20362;-61
2023/08/28 02:31:53;;;;;;;17.00;11.38;;;;;;;;;;5035942;28;20059;-59
2023/08/28 02:34:19;;;;;;;16.17;10.75;;;;;;;;;;5044068;28;20052;-61
2023/08/28 02:36:44;;;;;;;16.92;11.32;;;;;;;;;;5051142;28;20032;-61
2023/08/28 02:39:10;;;;;;;18.42;12.82;;;;;;;;;;5051291;28;20025;-61
2023/08/28 02:41:35;;;;;;;16.85;11.57;;;;;;;;;;5051612;28;20461;-61
2023/08/28 02:44:00;;;;;;;17.58;12.10;;;;;;;;;;5049630;28;20025;-61
2023/08/28 02:46:26;;;;;;;20.48;11.38;;;;;;;;;;5050798;28;20033;-61
2023/08/28 02:48:51;;;;;;;16.13;11.32;;;;;;;;;;5047559;28;20033;-61
2023/08/28 02:51:16;;;;;;;17.42;12.20;;;;;;;;;;5048575;28;20487;-61
2023/08/28 02:53:42;;;;;;;19.83;12.50;;;;;;;;;;5052115;28;20029;-61
2023/08/28 02:56:29;;;;;;;16.15;11.63;;;;;;;;;;5046375;28;20902;-61
2023/08/28 02:58:56;;;;;;;19.02;12.60;;;;;;;;;;5050088;28;20090;-61
2023/08/28 03:01:22;;;;;;;19.27;12.90;;;;;;;;;;5045383;28;20025;-61
2023/08/28 03:03:47;;;;;;;18.48;12.80;;;;;;;;;;5044525;28;20156;-61
2023/08/28 03:06:13;;;;;;;21.58;12.30;;;;;;;;;;5050385;28;20068;-61
2023/08/28 03:08:38;;;;;;;20.13;12.38;;;;;;;;;;5037883;28;20499;-61
2023/08/28 03:11:04;;;;;;;18.77;12.10;;;;;;;;;;5038646;28;20033;-61
2023/08/28 03:13:29;;;;;;;21.63;12.73;;;;;;;;;;5046993;28;20049;-61
2023/08/28 03:15:54;;;;;;;22.15;13.80;;;;;;;;;;5048038;28;20068;-61
2023/08/28 03:18:20;;;;;;;21.83;13.90;;;;;;;;;;5050233;28;20040;-61
2023/08/28 03:20:45;;;;;;;21.80;13.15;;;;;;;;;;5049689;28;20037;-61
2023/08/28 03:23:11;;;;;;;22.63;13.15;;;;;;;;;;5050101;28;20486;-61
2023/08/28 03:25:36;;;;;;;19.75;13.02;;;;;;;;;;5040694;28;20171;-61
2023/08/28 03:28:06;;;;;;;21.15;12.77;;;;;;;;;;5047468;28;20040;-61
2023/08/28 03:30:32;;;;;;;18.60;11.68;;;;;;;;;;5045062;28;20033;-61
2023/08/28 03:32:57;;;;;;;18.40;10.90;;;;;;;;;;5049958;28;20040;-61
2023/08/28 03:35:23;;;;;;;17.70;11.07;;;;;;;;;;5048007;28;20370;-61
2023/08/28 03:37:48;;;;;;;18.45;11.45;;;;;;;;;;5046022;28;20032;-61
2023/08/28 03:40:13;;;;;;;14.73;10.23;;;;;;;;;;5044185;28;20029;-61
2023/08/28 03:42:39;;;;;;;18.25;11.88;;;;;;;;;;5040241;28;20247;-61
2023/08/28 03:45:04;;;;;;;16.25;10.75;;;;;;;;;;5043193;28;20377;-61
2023/08/28 03:47:30;;;;;;;18.30;10.82;;;;;;;;;;5050130;28;20048;-61
2023/08/28 03:49:55;;;;;;;16.50;10.23;;;;;;;;;;5048394;28;20029;-61
2023/08/28 03:52:21;;;;;;;15.73;10.70;;;;;;;;;;5050357;28;20043;-61
2023/08/28 03:54:46;;;;;;;15.10;10.82;;;;;;;;;;5041015;28;20394;-60
2023/08/28 03:57:11;;;;;;;20.75;11.88;;;;;;;;;;5032924;28;20509;-60
2023/08/28 03:59:37;;;;;;;15.70;11.13;;;;;;;;;;5031121;28;20037;-61
2023/08/28 04:02:03;;;;;;;17.10;11.00;;;;;;;;;;5042839;28;20029;-61
2023/08/28 04:04:29;;;;;;;14.20;10.98;;;;;;;;;;5042772;28;20086;-61
2023/08/28 04:06:58;;;;;;;17.00;10.93;;;;;;;;;;5043851;28;20478;-61
2023/08/28 04:09:23;;;;;;;21.08;10.75;;;;;;;;;;5038661;28;20045;-61
2023/08/28 04:11:48;;;;;;;16.70;9.73;;;;;;;;;;5049450;28;20029;-61
2023/08/28 04:14:14;;;;;;;14.15;10.10;;;;;;;;;;5042568;28;20277;-61
2023/08/28 04:16:39;;;;;;;12.38;9.65;;;;;;;;;;5052619;28;20222;-61
2023/08/28 04:19:05;;;;;;;14.90;9.68;;;;;;;;;;5043081;28;20112;-61
2023/08/28 04:21:30;;;;;;;18.27;11.07;;;;;;;;;;5049592;28;20469;-61
2023/08/28 04:23:56;;;;;;;17.52;11.38;;;;;;;;;;5054650;28;20488;-61
2023/08/28 04:26:21;;;;;;;17.45;11.50;;;;;;;;;;5047101;28;20111;-61
2023/08/28 04:28:46;;;;;;;18.08;11.70;;;;;;;;;;5053502;28;20370;-61
2023/08/28 04:31:13;;;;;;;18.98;12.75;;;;;;;;;;5043693;28;20045;-61
2023/08/28 04:33:39;;;;;;;17.58;11.85;;;;;;;;;;5045694;28;20036;-60
2023/08/28 04:36:04;;;;;;;16.98;11.70;;;;;;;;;;5049285;28;20037;-61
2023/08/28 04:38:30;;;;;;;19.38;11.85;;;;;;;;;;5036927;28;20038;-60
2023/08/28 04:40:55;;;;;;;18.33;12.05;;;;;;;;;;5043359;28;20032;-60
2023/08/28 04:43:21;;;;;;;17.00;12.07;;;;;;;;;;5034115;28;20030;-60
2023/08/28 04:45:49;;;;;;;18.00;11.80;;;;;;;;;;5037686;28;20037;-60
2023/08/28 04:48:14;;;;;;;21.38;12.30;;;;;;;;;;5046581;28;20035;-60
2023/08/28 04:50:41;;;;;;;18.48;11.95;;;;;;;;;;5042973;28;20029;-59
2023/08/28 04:53:07;;;;;;;17.70;12.27;;;;;;;;;;5039721;28;20037;-60
2023/08/28 04:55:33;;;;;;;18.17;11.90;;;;;;;;;;5039840;28;20064;-60
2023/08/28 04:57:58;;;;;;;18.35;11.60;;;;;;;;;;5043692;28;20041;-60
2023/08/28 05:00:24;;;;;;;16.30;12.27;;;;;;;;;;5042749;28;20029;-60
2023/08/28 05:02:49;;;;;;;16.83;12.63;;;;;;;;;;5050150;28;20037;-60
2023/08/28 05:05:15;;;;;;;21.88;12.05;;;;;;;;;;5051024;28;20040;-60
2023/08/28 05:07:40;;;;;;;18.42;12.63;;;;;;;;;;5051538;28;20061;-60
2023/08/28 05:10:06;;;;;;;19.50;12.50;;;;;;;;;;5044279;28;20116;-60
2023/08/28 05:12:31;;;;;;;19.40;12.35;;;;;;;;;;5051863;28;20139;-60
2023/08/28 05:14:57;;;;;;;20.88;12.98;;;;;;;;;;5053493;28;20102;-61
2023/08/28 05:17:22;;;;;;;18.27;13.15;;;;;;;;;;5053572;28;20025;-61
2023/08/28 05:19:47;;;;;;;19.52;12.98;;;;;;;;;;5052786;28;20057;-60
2023/08/28 05:22:13;;;;;;;23.48;13.80;;;;;;;;;;5051468;28;20366;-60
2023/08/28 05:24:38;;;;;;;20.98;13.68;;;;;;;;;;5041628;28;20039;-60
2023/08/28 05:27:04;;;;;;;23.20;14.02;;;;;;;;;;5053096;28;20029;-60
2023/08/28 05:29:29;;;;;;;26.25;15.57;;;;;;;;;;5053637;28;20087;-61
2023/08/28 05:31:55;;;;;;;24.23;14.75;;;;;;;;;;5054254;28;20025;-60
2023/08/28 05:34:20;;;;;;;22.95;15.38;;;;;;;;;;5050012;28;20918;-60
2023/08/28 05:36:45;;;;;;;22.73;15.55;;;;;;;;;;5051764;28;20040;-60
2023/08/28 05:39:11;;;;;;;25.38;15.25;;;;;;;;;;5052418;28;20435;-60
2023/08/28 05:41:36;;;;;;;21.48;14.10;;;;;;;;;;5052752;28;20039;-60
2023/08/28 05:44:02;;;;;;;25.10;15.90;;;;;;;;;;5051440;28;20021;-61
2023/08/28 05:46:27;;;;;;;23.63;15.27;;;;;;;;;;5045887;28;20373;-60
2023/08/28 05:48:53;;;;;;;23.27;15.40;;;;;;;;;;5033604;28;20087;-60
2023/08/28 05:51:18;;;;;;;21.25;14.90;;;;;;;;;;5032747;28;20036;-60
2023/08/28 05:53:44;;;;;;;23.13;16.02;;;;;;;;;;5033596;28;20037;-60
2023/08/28 05:56:09;;;;;;;24.85;16.58;;;;;;;;;;5033487;28;20044;-61
2023/08/28 05:58:35;;;;;;;25.25;17.30;;;;;;;;;;5046296;28;20397;-60
2023/08/28 06:01:00;;;;;;;25.70;16.92;;;;;;;;;;5053022;28;20024;-60
2023/08/28 06:03:25;;;;;;;26.75;16.90;;;;;;;;;;5041409;28;20025;-61
2023/08/28 06:05:51;;;;;;;26.65;17.63;;;;;;;;;;5040698;28;20041;-60
2023/08/28 06:08:16;;;;;;;28.90;18.75;;;;;;;;;;5038733;28;20032;-62
2023/08/28 06:10:42;;;;;;;28.38;18.05;;;;;;;;;;5052987;28;20078;-62
2023/08/28 06:13:07;;;;;;;31.73;17.17;;;;;;;;;;5051732;28;20103;-62
2023/08/28 06:15:34;;;;;;;27.33;18.38;;;;;;;;;;5052496;28;20111;-62
2023/08/28 06:17:59;;;;;;;26.95;18.52;;;;;;;;;;5051255;28;20453;-62
2023/08/28 06:20:25;;;;;;;26.77;18.08;;;;;;;;;;5037303;28;20021;-62
2023/08/28 06:22:50;;;;;;;29.13;17.42;;;;;;;;;;5033112;28;20026;-60
2023/08/28 06:25:16;;;;;;;27.90;18.08;;;;;;;;;;5048935;28;20049;-59
2023/08/28 06:27:41;;;;;;;28.75;18.23;;;;;;;;;;5053157;28;20433;-60
2023/08/28 06:30:07;;;;;;;27.17;17.63;;;;;;;;;;5043269;28;20033;-58
2023/08/28 06:32:32;;;;;;;25.30;17.40;;;;;;;;;;5034784;28;20052;-60
2023/08/28 06:34:59;;;;;;;25.85;16.55;;;;;;;;;;5052808;28;20108;-60
2023/08/28 06:37:24;;;;;;;27.58;18.10;;;;;;;;;;5050726;28;20614;-60
2023/08/28 06:39:51;;;;;;;23.67;16.73;;;;;;;;;;5052411;28;20037;-60
2023/08/28 06:42:17;;;;;;;23.00;16.13;;;;;;;;;;5037275;28;20091;-60
2023/08/28 06:44:42;;;;;;;21.35;15.77;;;;;;;;;;5032542;28;20470;-60
2023/08/28 06:47:07;;;;;;;24.08;16.17;;;;;;;;;;5034314;28;20040;-60
2023/08/28 06:49:33;;;;;;;24.48;15.68;;;;;;;;;;5046117;28;20064;-59
2023/08/28 06:51:58;;;;;;;23.45;15.00;;;;;;;;;;5052320;28;20033;-61
2023/08/28 06:54:24;;;;;;;20.65;14.07;;;;;;;;;;5050386;28;20029;-60
2023/08/28 06:56:49;;;;;;;19.13;14.75;;;;;;;;;;5052419;28;20037;-61
2023/08/28 06:59:15;;;;;;;24.05;14.45;;;;;;;;;;5050473;28;20358;-60
2023/08/28 07:01:41;;;;;;;17.65;13.70;;;;;;;;;;5052267;28;20036;-60
2023/08/28 07:04:07;;;;;;;22.60;13.95;;;;;;;;;;5050083;28;20381;-60
2023/08/28 07:06:32;;;;;;;23.27;14.52;;;;;;;;;;5045435;28;20032;-61
2023/08/28 07:08:59;;;;;;;22.45;14.38;;;;;;;;;;5035013;28;20037;-60
2023/08/28 07:11:24;;;;;;;21.15;14.73;;;;;;;;;;5051409;28;20285;-60
2023/08/28 07:13:50;;;;;;;19.95;13.95;;;;;;;;;;5048849;28;20665;-64
2023/08/28 07:16:15;;;;;;;23.15;14.48;;;;;;;;;;5038269;28;20033;-60
2023/08/28 07:18:41;;;;;;;19.05;13.85;;;;;;;;;;5050583;28;20035;-60
2023/08/28 07:21:09;;;;;;;18.58;13.38;;;;;;;;;;5039260;28;20048;-61
2023/08/28 07:23:36;;;;;;;19.92;14.07;;;;;;;;;;5051371;28;20108;-60
2023/08/28 07:26:02;;;;;;;24.05;13.93;;;;;;;;;;5051575;28;20044;-61
2023/08/28 07:28:28;;;;;;;18.77;13.90;;;;;;;;;;5050451;28;20036;-60
2023/08/28 07:30:57;;;;;;;19.98;13.77;;;;;;;;;;5049460;28;20043;-61
2023/08/28 07:33:23;;;;;;;21.15;14.02;;;;;;;;;;5050607;28;20029;-60
2023/08/28 07:35:49;;;;;;;18.75;14.18;;;;;;;;;;5049395;28;20029;-60
2023/08/28 07:38:15;;;;;;;18.63;13.32;;;;;;;;;;5046766;28;20037;-61
2023/08/28 07:40:40;;;;;;;20.92;14.10;;;;;;;;;;5049400;28;20047;-60
2023/08/28 07:43:06;;;;;;;20.48;13.82;;;;;;;;;;5050255;28;20029;-61
2023/08/28 07:45:31;;;;;;;18.08;13.73;;;;;;;;;;5050537;28;20064;-61
2023/08/28 07:47:58;;;;;;;21.13;14.05;;;;;;;;;;5051719;28;20035;-61
2023/08/28 07:50:24;;;;;;;19.45;13.02;;;;;;;;;;5049422;28;20040;-61
2023/08/28 07:52:49;;;;;;;21.70;14.05;;;;;;;;;;5051292;28;20036;-59
2023/08/28 07:55:15;;;;;;;19.77;13.85;;;;;;;;;;5050254;28;20036;-59
2023/08/28 07:57:40;;;;;;;20.30;14.20;;;;;;;;;;5050344;28;20084;-59
2023/08/28 08:00:07;;;;;;;20.00;13.38;;;;;;;;;;5048915;28;20052;-59
2023/08/28 08:02:33;;;;;;;19.08;13.30;;;;;;;;;;5044628;28;20063;-60
2023/08/28 08:04:58;;;;;;;18.55;13.60;;;;;;;;;;5038931;28;20053;-61
2023/08/28 08:07:24;;;;;;;18.88;12.63;;;;;;;;;;5050416;28;20025;-61
2023/08/28 08:09:49;;;;;;;22.65;13.20;;;;;;;;;;5050560;28;20044;-61
2023/08/28 08:12:15;;;;;;;18.60;12.85;;;;;;;;;;5050361;28;20021;-61
2023/08/28 08:14:40;;;;;;;20.38;13.70;;;;;;;;;;5047384;28;20530;-61
2023/08/28 08:17:05;;;;;;;18.75;12.32;;;;;;;;;;5031204;28;20044;-60
2023/08/28 08:19:31;;;;;;;17.98;12.10;;;;;;;;;;5030370;28;20026;-60
2023/08/28 08:21:58;;;;;;;19.08;13.05;;;;;;;;;;5031474;28;20108;-60
2023/08/28 08:24:23;;;;;;;19.08;11.13;;;;;;;;;;5037571;28;20457;-60
2023/08/28 08:26:49;;;;;;;16.20;11.23;;;;;;;;;;5049467;28;20044;-61
2023/08/28 08:29:15;;;;;;;19.08;11.40;;;;;;;;;;5050421;28;20033;-59
2023/08/28 08:31:40;;;;;;;15.70;11.05;;;;;;;;;;5050585;28;20036;-60
2023/08/28 08:34:05;;;;;;;20.75;11.63;;;;;;;;;;5051368;28;20102;-60
2023/08/28 08:36:31;;;;;;;15.00;11.05;;;;;;;;;;5050295;28;20031;-61
2023/08/28 08:38:56;;;;;;;16.00;11.50;;;;;;;;;;5051222;28;20374;-61
2023/08/28 08:41:22;;;;;;;17.58;11.63;;;;;;;;;;5048815;28;20025;-60
2023/08/28 08:43:47;;;;;;;15.20;11.52;;;;;;;;;;5046472;28;20033;-61
2023/08/28 08:46:13;;;;;;;16.35;11.68;;;;;;;;;;5050074;28;20032;-61
2023/08/28 08:48:41;;;;;;;17.10;11.50;;;;;;;;;;5050996;28;20571;-61
2023/08/28 08:51:08;;;;;;;18.95;11.82;;;;;;;;;;5051038;28;20032;-61
2023/08/28 08:53:53;;;;;;;17.10;13.43;;;;;;;;;;5046555;28;20489;-60
2023/08/28 08:56:21;;;;;;;17.42;13.02;;;;;;;;;;5033970;28;20022;-60
2023/08/28 08:58:47;;;;;;;18.63;13.82;;;;;;;;;;5047075;28;20458;-60
2023/08/28 09:01:13;;;;;;;16.90;13.73;;;;;;;;;;5053561;28;20029;-60
2023/08/28 09:03:39;;;;;;;16.70;13.82;;;;;;;;;;5047516;28;20528;-60
2023/08/28 09:06:06;;;;;;;17.02;14.07;;;;;;;;;;5040733;28;20413;-60
2023/08/28 09:08:34;;;;;;;19.08;14.30;;;;;;;;;;5053457;28;20052;-60
2023/08/28 09:11:00;;;;;;;20.08;14.38;;;;;;;;;;5053926;28;20032;-60
2023/08/28 09:13:26;;;;;;;18.50;14.25;;;;;;;;;;5051713;28;20386;-61
2023/08/28 09:15:51;;;;;;;18.98;13.25;;;;;;;;;;5054036;28;20029;-60
2023/08/28 09:18:17;;;;;;;12.30;9.55;;;;;;;;;;5053219;28;20091;-60
2023/08/28 09:20:43;;;;;;;12.40;9.13;;;;;;;;;;5053354;28;20043;-60
2023/08/28 09:23:08;;;;;;;10.98;8.13;;;;;;;;;;5052747;28;20047;-60
2023/08/28 09:25:34;;;;;;;12.13;9.68;;;;;;;;;;5052891;28;20074;-60
2023/08/28 09:28:00;;;;;;;15.60;10.07;;;;;;;;;;5053991;28;20056;-60
2023/08/28 09:30:32;;;;;;;14.35;10.00;;;;;;;;;;5048429;28;20053;-65
2023/08/28 09:33:01;;;;;;;16.27;10.23;;;;;;;;;;5052627;28;20029;-60
2023/08/28 09:35:27;;;;;;;13.73;10.32;;;;;;;;;;5050798;28;20477;-64
2023/08/28 09:37:56;;;;;;;11.40;9.13;;;;;;;;;;5038058;28;20036;-59
2023/08/28 09:40:32;;;;;;;8.77;7.32;;;;;;;;;;5033030;28;20033;-59
2023/08/28 09:43:01;;;;;;;10.38;7.63;;;;;;;;;;5033940;28;20033;-60
2023/08/28 09:45:33;;;;;;;7.97;5.60;;;;;;;;;;5032931;28;20033;-59
2023/08/28 09:47:59;;;;;;;8.73;5.80;;;;;;;;;;5033831;28;20112;-60
2023/08/28 09:50:27;;;;;;;10.43;7.40;;;;;;;;;;5032664;28;20521;-60
2023/08/28 09:52:53;;;;;;;11.35;10.00;;;;;;;;;;5038035;28;20029;-59
2023/08/28 09:55:18;;;;;;;10.48;9.38;;;;;;;;;;5051082;28;20477;-60
2023/08/28 09:57:44;;;;;;;13.48;9.50;;;;;;;;;;5049511;28;20034;-59
2023/08/28 10:00:11;;;;;;;10.07;8.98;;;;;;;;;;5033144;28;20026;-60
2023/08/28 10:02:38;;;;;;;13.63;9.93;;;;;;;;;;5032457;28;20168;-60
2023/08/28 10:05:05;;;;;;;10.70;8.05;;;;;;;;;;5033754;28;20066;-60
2023/08/28 10:07:32;;;;;;;12.93;9.18;;;;;;;;;;5032473;28;20037;-60
2023/08/28 10:09:59;;;;;;;13.48;9.85;;;;;;;;;;5033273;28;20037;-60
2023/08/28 10:12:27;;;;;;;13.77;10.30;;;;;;;;;;5034156;28;20033;-60
2023/08/28 10:14:54;;;;;;;13.75;10.02;;;;;;;;;;5047660;28;20099;-60
2023/08/28 10:17:22;;;;;;;15.02;10.07;;;;;;;;;;5052120;28;20068;-60
2023/08/28 10:19:56;;;;;;;14.93;10.20;;;;;;;;;;5053030;28;20032;-60
2023/08/28 10:22:23;;;;;;;13.15;10.50;;;;;;;;;;5052090;28;20025;-60
2023/08/28 10:24:52;;;;;;;17.52;11.63;;;;;;;;;;5051620;28;20385;-60
2023/08/28 10:27:20;;;;;;;13.13;9.73;;;;;;;;;;5052224;28;20057;-60
2023/08/28 10:29:52;;;;;;;13.77;7.68;;;;;;;;;;5051628;28;20028;-61
2023/08/28 10:32:20;;;;;;;10.57;7.10;;;;;;;;;;5051517;28;20035;-60
2023/08/28 10:34:46;;;;;;;10.95;7.70;;;;;;;;;;5043904;28;20112;-60
2023/08/28 10:37:13;;;;;;;9.60;6.57;;;;;;;;;;5050784;28;20456;-60
2023/08/28 10:39:43;;;;;;;11.00;7.30;;;;;;;;;;5033438;28;20060;-60
2023/08/28 10:42:10;;;;;;;11.13;7.07;;;;;;;;;;5051065;28;20032;-59
2023/08/28 10:44:37;;;;;;;8.45;5.80;;;;;;;;;;5051611;28;20911;-59
2023/08/28 10:47:03;;;;;;;7.95;5.50;;;;;;;;;;5052482;28;20035;-59
2023/08/28 10:49:28;;;;;;;6.53;3.97;;;;;;;;;;5051664;28;20029;-60
2023/08/28 10:52:02;;;;;;;6.75;4.75;;;;;;;;;;5050877;28;20079;-60
2023/08/28 10:54:48;;;;;;;5.95;4.35;;;;;;;;;;5050715;28;20036;-59
2023/08/28 10:57:22;;;;;;;6.57;4.22;;;;;;;;;;5050357;28;20119;-60
2023/08/28 10:59:49;;;;;;;8.32;5.20;;;;;;;;;;5052150;28;20539;-61
2023/08/28 11:02:14;;;;;;;6.25;4.50;;;;;;;;;;5051807;28;20037;-60
2023/08/28 11:04:43;;;;;;;7.57;3.60;;;;;;;;;;5051353;28;20767;-60
2023/08/28 11:07:40;;;;;;;4.88;2.67;;;;;;;;;;5052202;28;20039;-60
2023/08/28 11:10:20;;;;;;;4.40;2.75;;;;;;;;;;5044302;28;20048;-60
2023/08/28 11:12:54;;;;;;;5.47;2.70;;;;;;;;;;5050837;28;20074;-59
2023/08/28 11:15:31;;;;;;;3.92;2.90;;;;;;;;;;5049535;28;20039;-60
2023/08/28 11:18:29;;;;;;;5.57;2.58;;;;;;;;;;5050398;28;20025;-60
2023/08/28 11:21:03;;;;;;;3.90;2.30;;;;;;;;;;5052079;28;20032;-60
2023/08/28 11:23:38;;;;;;;3.78;2.30;;;;;;;;;;5051119;28;20044;-60
2023/08/28 11:26:25;;;;;;;3.65;2.30;;;;;;;;;;5051885;28;20036;-60
2023/08/28 11:28:50;;;;;;;4.68;2.40;;;;;;;;;;5052040;28;20029;-60
2023/08/28 11:31:19;;;;;;;6.05;2.60;;;;;;;;;;5050282;28;20475;-60
2023/08/28 11:33:46;;;;;;;4.60;2.22;;;;;;;;;;5051037;28;20025;-60
2023/08/28 11:36:19;;;;;;;5.82;2.38;;;;;;;;;;5051800;28;20079;-60
2023/08/28 11:38:45;;;;;;;5.97;2.40;;;;;;;;;;5049853;28;20099;-61
2023/08/28 11:41:11;;;;;;;3.08;2.40;;;;;;;;;;5050161;28;20070;-60
2023/08/28 11:43:38;;;;;;;2.72;2.22;;;;;;;;;;5046006;28;20037;-60
2023/08/28 11:46:04;;;;;;;2.72;2.00;;;;;;;;;;5049722;28;20361;-60
2023/08/28 11:48:37;;;;;;;3.08;2.15;;;;;;;;;;5032241;28;20470;-60
2023/08/28 11:51:05;;;;;;;2.92;2.00;;;;;;;;;;5031772;28;20125;-60
2023/08/28 11:53:37;;;;;;;3.33;2.10;;;;;;;;;;5030658;28;20034;-60
2023/08/28 11:56:04;;;;;;;6.85;2.83;;;;;;;;;;5046618;28;20029;-60
2023/08/28 11:58:34;;;;;;;5.55;2.70;;;;;;;;;;5031942;28;20029;-60
2023/08/28 12:01:01;;;;;;;3.05;2.10;;;;;;;;;;5031644;28;20034;-60
2023/08/28 12:03:27;;;;;;;9.05;2.25;;;;;;;;;;5030613;28;20079;-61
2023/08/28 12:06:04;;;;;;;4.25;2.22;;;;;;;;;;5031516;28;20033;-60
2023/08/28 12:08:30;;;;;;;2.67;2.20;;;;;;;;;;5030648;28;20041;-60
2023/08/28 12:10:57;;;;;;;3.65;2.10;;;;;;;;;;5037715;28;20095;-60
2023/08/28 12:13:22;;;;;;;3.22;1.95;;;;;;;;;;5035664;28;20056;-60
2023/08/28 12:15:48;;;;;;;2.20;1.88;;;;;;;;;;5032096;28;20030;-60
2023/08/28 12:18:13;;;;;;;9.55;2.17;;;;;;;;;;5031385;28;20030;-61
2023/08/28 12:20:39;;;;;;;3.97;2.20;;;;;;;;;;5030618;28;20466;-61
2023/08/28 12:23:04;;;;;;;2.83;2.00;;;;;;;;;;5031242;28;20033;-60
2023/08/28 12:25:35;;;;;;;3.70;2.00;;;;;;;;;;5035884;28;20064;-61
2023/08/28 12:28:05;;;;;;;;;;;;;;;;;;5052797;28;20052;-61
2023/08/28 12:30:30;;;;;;;4.05;1.70;;;;;;;;;;5047283;28;19919;-61
2023/08/28 12:32:55;;;;;;;2.30;1.80;;;;;;;;;;5046929;28;20112;-60
2023/08/28 12:35:22;;;;;;;2.40;1.90;;;;;;;;;;5054959;28;20120;-61
2023/08/28 12:37:50;;;;;;;4.30;1.90;;;;;;;;;;5052790;28;20028;-59
2023/08/28 12:40:15;;;;;;;2.70;1.83;;;;;;;;;;5054017;28;20033;-60
2023/08/28 12:42:41;;;;;;;2.97;1.70;;;;;;;;;;5052061;28;20043;-61
2023/08/28 12:45:06;;;;;;;2.13;1.60;;;;;;;;;;5053296;28;20024;-61
2023/08/28 12:47:32;;;;;;;2.30;1.90;;;;;;;;;;5038144;28;20029;-60
2023/08/28 12:49:57;;;;;;;2.85;1.80;;;;;;;;;;5044768;28;20041;-59
2023/08/28 12:52:23;;;;;;;3.92;2.00;;;;;;;;;;5053735;28;20029;-59
2023/08/28 12:54:48;;;;;;;3.00;1.90;;;;;;;;;;5053570;28;20048;-60
2023/08/28 12:57:14;;;;;;;2.28;1.80;;;;;;;;;;5053270;28;20079;-59
2023/08/28 12:59:39;;;;;;;3.15;2.05;;;;;;;;;;5053571;28;20402;-59
2023/08/28 13:02:05;;;;;;;3.13;1.83;;;;;;;;;;5053673;28;20033;-60
2023/08/28 13:04:30;;;;;;;2.75;1.70;;;;;;;;;;5051858;28;20078;-61
2023/08/28 13:06:56;;;;;;;2.67;1.90;;;;;;;;;;5046221;28;20021;-61
2023/08/28 13:09:50;;;;;;;5.28;1.92;;;;;;;;;;5052769;28;20032;-61
2023/08/28 13:12:16;;;;;;;3.42;2.03;;;;;;;;;;5028317;28;20045;-62
2023/08/28 13:14:41;;;;;;;4.00;1.90;;;;;;;;;;5033623;28;20064;-60
2023/08/28 13:17:06;;;;;;;3.42;1.70;;;;;;;;;;5034136;28;20095;-61
2023/08/28 13:20:27;;;;;;;2.22;1.80;;;;;;;;;;5040691;28;20025;-60
2023/08/28 13:22:55;;;;;;;;;;;;;;;;;;4986504;28;20249;-60
2023/08/28 13:25:20;;;;;;;3.08;1.90;;;;;;;;;;4986865;28;20350;-60
2023/08/28 13:27:46;;;;;;;1.95;1.73;;;;;;;;;;4982532;28;20041;-60
2023/08/28 13:30:13;;;;;;;2.08;1.70;;;;;;;;;;4989595;28;20049;-60
2023/08/28 13:32:38;;;;;;;3.17;1.73;;;;;;;;;;4990859;28;20042;-60
2023/08/28 13:35:04;;;;;;;4.60;2.17;;;;;;;;;;4991537;28;20046;-60
2023/08/28 13:37:29;;;;;;;4.75;1.98;;;;;;;;;;4989793;28;20437;-60
2023/08/28 13:39:54;;;;;;;2.40;1.70;;;;;;;;;;4985541;28;20149;-60
2023/08/28 13:42:20;;;;;;;2.97;1.75;;;;;;;;;;4986973;28;20834;-60
2023/08/28 13:44:45;;;;;;;2.25;1.75;;;;;;;;;;4989903;28;20202;-60
2023/08/28 13:47:11;;;;;;;3.58;1.88;;;;;;;;;;4991374;28;20046;-60
2023/08/28 13:49:36;;;;;;;3.85;2.10;;;;;;;;;;4988734;28;20089;-60
2023/08/28 13:52:03;;;;;;;5.53;1.88;;;;;;;;;;4991660;28;20054;-59
2023/08/28 13:54:28;;;;;;;4.68;2.20;;;;;;;;;;4990199;28;20495;-60
2023/08/28 13:56:54;;;;;;;3.92;1.90;;;;;;;;;;4988044;28;20475;-59
2023/08/28 13:59:19;;;;;;;2.40;2.00;;;;;;;;;;5021411;28;20077;-60
2023/08/28 14:01:45;;;;;;;3.30;2.00;;;;;;;;;;5051169;28;20526;-60
2023/08/28 14:04:11;;;;;;;3.13;2.00;;;;;;;;;;5053226;28;20040;-59
2023/08/28 14:06:36;;;;;;;3.72;1.85;;;;;;;;;;5052301;28;20040;-59
2023/08/28 14:09:03;;;;;;;2.60;1.80;;;;;;;;;;5050431;28;20036;-59
2023/08/28 14:11:28;;;;;;;3.22;1.90;;;;;;;;;;5034130;28;20033;-59
2023/08/28 14:13:54;;;;;;;3.63;2.00;;;;;;;;;;5049149;28;20045;-61
2023/08/28 14:16:19;;;;;;;3.40;1.90;;;;;;;;;;5052883;28;20044;-61
2023/08/28 14:18:45;;;;;;;3.35;2.00;;;;;;;;;;5051666;28;20028;-60
2023/08/28 14:21:10;;;;;;;2.03;1.70;;;;;;;;;;5050708;28;20025;-60
2023/08/28 14:23:36;;;;;;;5.75;1.73;;;;;;;;;;5049257;28;20036;-60
2023/08/28 14:26:04;;;;;;;3.03;2.00;;;;;;;;;;5051385;28;20032;-60
2023/08/28 14:28:30;;;;;;;2.47;1.73;;;;;;;;;;5051228;28;20032;-60